createdAt,value
2018-03-02T00:01:45.379Z,9.03
2018-03-02T00:04:13.692Z,9.88
2018-03-02T00:06:42.807Z,8.77
2018-03-02T00:09:11.092Z,9.77
2018-03-02T00:11:39.384Z,10.23
2018-03-02T00:14:07.665Z,9.55
2018-03-02T00:16:35.943Z,9.90
2018-03-02T00:19:04.280Z,8.80
2018-03-02T00:21:34.343Z,9.00
2018-03-02T00:24:02.645Z,11.00
2018-03-02T00:26:30.927Z,9.70
2018-03-02T00:28:59.298Z,10.23
2018-03-02T00:31:27.584Z,10.80
2018-03-02T00:33:55.857Z,8.83
2018-03-02T00:36:24.134Z,9.35
2018-03-02T00:38:52.461Z,9.37
2018-03-02T00:41:20.740Z,9.33
2018-03-02T00:43:49.070Z,9.17
2018-03-02T00:46:18.126Z,9.95
2018-03-02T00:48:46.436Z,10.10
2018-03-02T00:51:14.716Z,10.60
2018-03-02T00:53:43.056Z,10.70
2018-03-02T00:56:11.348Z,9.75
2018-03-02T00:58:39.617Z,10.00
2018-03-02T01:01:08.686Z,10.37
2018-03-02T01:03:36.958Z,11.27
2018-03-02T01:06:05.230Z,9.82
2018-03-02T01:08:33.521Z,9.90
2018-03-02T01:11:01.817Z,9.85
2018-03-02T01:13:30.116Z,10.93
2018-03-02T01:15:58.425Z,10.90
2018-03-02T01:18:27.481Z,9.43
2018-03-02T01:20:55.759Z,9.50
2018-03-02T01:23:24.044Z,10.87
2018-03-02T01:25:53.100Z,11.40
2018-03-02T01:28:21.458Z,9.80
2018-03-02T01:30:49.764Z,10.67
2018-03-02T01:33:18.050Z,10.10
2018-03-02T01:35:46.356Z,11.23
2018-03-02T01:38:15.409Z,11.80
2018-03-02T01:40:43.702Z,10.30
2018-03-02T01:43:11.988Z,9.70
2018-03-02T01:45:41.056Z,10.88
2018-03-02T01:48:09.319Z,9.45
2018-03-02T01:50:37.607Z,10.20
2018-03-02T01:53:05.902Z,10.80
2018-03-02T01:55:34.199Z,10.88
2018-03-02T01:58:03.243Z,10.70
2018-03-02T02:00:31.526Z,10.17
2018-03-02T02:02:59.811Z,10.80
2018-03-02T02:05:28.083Z,11.10
2018-03-02T02:07:56.365Z,10.20
2018-03-02T02:10:24.744Z,11.43
2018-03-02T02:12:53.074Z,10.90
2018-03-02T02:15:21.363Z,11.68
2018-03-02T02:17:49.656Z,11.70
2018-03-02T02:20:17.924Z,11.48
2018-03-02T02:22:46.214Z,11.50
2018-03-02T02:25:14.487Z,11.20
2018-03-02T02:27:42.818Z,10.87
2018-03-02T02:30:11.913Z,10.53
2018-03-02T02:32:40.985Z,10.90
2018-03-02T02:35:09.248Z,11.27
2018-03-02T02:37:37.525Z,10.85
2018-03-02T02:40:05.843Z,11.47
2018-03-02T02:42:34.871Z,11.53
2018-03-02T02:45:03.175Z,12.07
2018-03-02T02:47:31.461Z,11.12
2018-03-02T02:49:59.747Z,11.10
2018-03-02T02:52:28.032Z,11.13
2018-03-02T02:54:57.081Z,10.60
2018-03-02T02:57:25.381Z,11.00
2018-03-02T02:59:53.687Z,12.37
2018-03-02T03:02:22.731Z,12.70
2018-03-02T03:04:51.019Z,11.83
2018-03-02T03:07:19.295Z,12.30
2018-03-02T03:09:47.569Z,11.25
2018-03-02T03:12:15.858Z,11.60
2018-03-02T03:14:44.124Z,13.45
2018-03-02T03:17:12.427Z,12.77
2018-03-02T03:19:41.502Z,13.30
2018-03-02T03:22:09.772Z,13.97
2018-03-02T03:24:38.049Z,13.35
2018-03-02T03:27:06.419Z,13.23
2018-03-02T03:29:34.743Z,11.70
2018-03-02T03:32:03.778Z,13.60
2018-03-02T03:34:32.161Z,11.82
2018-03-02T03:37:00.424Z,12.10
2018-03-02T03:39:28.696Z,12.80
2018-03-02T03:41:56.992Z,13.40
2018-03-02T03:44:25.258Z,11.70
2018-03-02T03:46:53.534Z,13.40
2018-03-02T03:49:21.839Z,12.33
2018-03-02T03:51:50.108Z,12.33
2018-03-02T03:54:18.395Z,13.03
2018-03-02T03:56:46.663Z,12.43
2018-03-02T03:59:14.996Z,11.17
2018-03-02T04:01:43.344Z,11.40
2018-03-02T04:04:12.439Z,13.13
2018-03-02T04:06:41.497Z,13.57
2018-03-02T04:09:09.791Z,12.60
2018-03-02T04:11:38.056Z,12.20
2018-03-02T04:14:06.328Z,12.48
2018-03-02T04:16:34.657Z,13.20
2018-03-02T04:19:03.699Z,13.83
2018-03-02T04:21:31.994Z,13.40
2018-03-02T04:24:00.263Z,13.70
2018-03-02T04:26:28.534Z,13.30
2018-03-02T04:28:56.819Z,13.10
2018-03-02T04:31:25.100Z,13.03
2018-03-02T04:33:53.372Z,14.67
2018-03-02T04:36:21.669Z,13.40
2018-03-02T04:38:50.717Z,12.43
2018-03-02T04:41:19.011Z,13.15
2018-03-02T04:43:47.291Z,12.90
2018-03-02T04:46:15.575Z,14.20
2018-03-02T04:48:43.871Z,13.03
2018-03-02T04:51:12.905Z,13.07
2018-03-02T04:53:41.269Z,13.20
2018-03-02T04:56:09.539Z,13.77
2018-03-02T04:58:37.816Z,13.40
2018-03-02T05:01:06.104Z,13.37
2018-03-02T05:03:34.387Z,14.07
2018-03-02T05:06:02.660Z,14.10
2018-03-02T05:08:30.948Z,13.40
2018-03-02T05:10:59.223Z,12.90
2018-03-02T05:13:27.498Z,14.00
2018-03-02T05:15:55.840Z,13.33
2018-03-02T05:18:24.118Z,14.60
2018-03-02T05:20:52.402Z,12.73
2018-03-02T05:23:20.689Z,14.40
2018-03-02T05:25:49.012Z,14.97
2018-03-02T05:28:17.363Z,13.90
2018-03-02T05:30:45.660Z,14.40
2018-03-02T05:33:13.942Z,14.13
2018-03-02T05:35:42.996Z,13.10
2018-03-02T05:38:11.303Z,15.30
2018-03-02T05:40:39.564Z,14.13
2018-03-02T05:43:07.874Z,14.80
2018-03-02T05:45:36.935Z,14.30
2018-03-02T05:48:05.212Z,14.93
2018-03-02T05:50:33.495Z,15.57
2018-03-02T05:53:01.768Z,15.40
2018-03-02T05:55:30.118Z,14.00
2018-03-02T05:57:58.408Z,14.50
2018-03-02T06:00:26.676Z,14.63
2018-03-02T06:02:54.958Z,13.80
2018-03-02T06:05:23.226Z,13.60
2018-03-02T06:07:51.502Z,13.60
2018-03-02T06:10:19.788Z,13.23
2018-03-02T06:12:48.100Z,16.27
2018-03-02T06:15:16.407Z,15.25
2018-03-02T06:17:45.432Z,15.30
2018-03-02T06:20:13.704Z,15.20
2018-03-02T06:22:41.999Z,14.60
2018-03-02T06:25:10.291Z,14.30
2018-03-02T06:27:38.556Z,14.18
2018-03-02T06:30:06.881Z,13.43
2018-03-02T06:32:35.956Z,15.00
2018-03-02T06:35:05.017Z,14.07
2018-03-02T06:37:33.290Z,15.53
2018-03-02T06:40:01.555Z,14.47
2018-03-02T06:42:29.837Z,17.00
2018-03-02T06:44:58.092Z,14.90
2018-03-02T06:47:26.430Z,14.05
2018-03-02T06:49:55.480Z,14.67
2018-03-02T06:52:23.757Z,15.20
2018-03-02T06:54:52.137Z,13.13
2018-03-02T06:57:20.405Z,15.00
2018-03-02T06:59:48.748Z,13.63
2018-03-02T07:02:17.776Z,14.53
2018-03-02T07:04:46.137Z,14.37
2018-03-02T07:07:14.415Z,14.40
2018-03-02T07:09:42.692Z,14.53
2018-03-02T07:12:10.977Z,14.80
2018-03-02T07:14:39.260Z,14.93
2018-03-02T07:17:07.579Z,15.40
2018-03-02T07:19:35.848Z,14.10
2018-03-02T07:22:04.110Z,15.83
2018-03-02T07:24:32.408Z,14.90
2018-03-02T07:27:00.681Z,13.97
2018-03-02T07:29:29.724Z,15.23
2018-03-02T07:31:58.003Z,14.37
2018-03-02T07:34:26.445Z,15.60
2018-03-02T07:36:55.616Z,14.60
2018-03-02T07:39:23.896Z,14.57
2018-03-02T07:41:52.189Z,14.27
2018-03-02T07:44:21.224Z,13.50
2018-03-02T07:46:49.602Z,15.15
2018-03-02T07:49:17.940Z,13.73
2018-03-02T07:51:46.212Z,14.97
2018-03-02T07:54:14.499Z,13.50
2018-03-02T07:56:44.675Z,15.68
2018-03-02T07:59:12.959Z,13.73
2018-03-02T08:01:41.243Z,15.20
2018-03-02T08:04:10.296Z,14.87
2018-03-02T08:06:44.611Z,13.00
2018-03-02T08:09:12.867Z,13.73
2018-03-02T08:11:41.172Z,14.70
2018-03-02T08:14:09.565Z,15.70
2018-03-02T08:16:37.842Z,15.37
2018-03-02T08:19:06.105Z,14.57
2018-03-02T08:21:34.439Z,15.13
2018-03-02T08:24:03.512Z,14.67
2018-03-02T08:26:31.785Z,15.13
2018-03-02T08:29:00.068Z,16.33
2018-03-02T08:31:28.336Z,14.90
2018-03-02T08:33:56.604Z,14.95
2018-03-02T08:36:24.887Z,15.00
2018-03-02T08:38:53.156Z,14.27
2018-03-02T08:41:21.481Z,15.67
2018-03-02T08:43:50.551Z,15.37
2018-03-02T08:46:18.824Z,15.40
2018-03-02T08:48:47.083Z,14.90
2018-03-02T08:51:15.376Z,13.20
2018-03-02T08:53:43.655Z,16.20
2018-03-02T08:56:11.926Z,15.13
2018-03-02T08:58:40.225Z,13.70
2018-03-02T09:01:09.295Z,13.60
2018-03-02T09:03:37.560Z,14.70
2018-03-02T09:06:05.846Z,14.33
2018-03-02T09:08:34.110Z,13.47
2018-03-02T09:11:03.163Z,14.67
2018-03-02T09:13:31.455Z,13.15
2018-03-02T09:15:59.732Z,13.67
2018-03-02T09:18:27.991Z,13.20
2018-03-02T09:20:56.276Z,13.90
2018-03-02T09:23:24.552Z,14.52
2018-03-02T09:25:52.814Z,15.20
2018-03-02T09:28:21.098Z,15.33
2018-03-02T09:30:49.358Z,12.70
2018-03-02T09:33:17.635Z,14.30
2018-03-02T09:35:45.916Z,14.40
2018-03-02T09:38:14.181Z,12.93
2018-03-02T09:40:43.206Z,15.70
2018-03-02T09:43:11.508Z,14.57
2018-03-02T09:45:39.898Z,14.60
2018-03-02T09:48:08.152Z,14.77
2018-03-02T09:50:36.436Z,15.03
2018-03-02T09:53:04.712Z,13.10
2018-03-02T09:55:32.976Z,13.90
2018-03-02T09:58:01.258Z,13.13
2018-03-02T10:00:29.538Z,14.10
2018-03-02T10:02:57.807Z,15.43
2018-03-02T10:05:26.166Z,14.13
2018-03-02T10:07:54.431Z,16.87
2018-03-02T10:10:22.701Z,15.13
2018-03-02T10:12:50.995Z,14.03
2018-03-02T10:15:19.282Z,14.50
2018-03-02T10:17:47.560Z,15.37
2018-03-02T10:20:15.889Z,13.93
2018-03-02T10:22:44.907Z,14.97
2018-03-02T10:25:13.172Z,14.60
2018-03-02T10:27:41.459Z,13.60
2018-03-02T10:30:09.740Z,14.83
2018-03-02T10:32:38.025Z,13.37
2018-03-02T10:35:06.314Z,13.80
2018-03-02T10:37:34.586Z,13.62
2018-03-02T10:40:02.860Z,15.00
2018-03-02T10:42:31.144Z,15.43
2018-03-02T10:44:59.400Z,13.60
2018-03-02T10:47:27.664Z,14.20
2018-03-02T10:49:55.952Z,13.73
2018-03-02T10:52:24.222Z,15.47
2018-03-02T10:54:52.492Z,13.10
2018-03-02T10:57:20.780Z,13.03
2018-03-02T10:59:49.060Z,12.53
2018-03-02T11:02:32.219Z,12.83
2018-03-02T11:05:05.975Z,12.60
2018-03-02T11:07:34.268Z,12.60
2018-03-02T11:10:02.536Z,13.50
2018-03-02T11:12:30.811Z,13.60
2018-03-02T11:14:59.093Z,13.90
2018-03-02T11:17:27.366Z,12.80
2018-03-02T11:19:55.637Z,12.87
2018-03-02T11:22:23.926Z,13.30
2018-03-02T11:24:52.185Z,13.43
2018-03-02T11:27:20.462Z,11.70
2018-03-02T11:29:48.744Z,12.23
2018-03-02T11:32:17.013Z,13.33
2018-03-02T11:34:45.275Z,12.37
2018-03-02T11:37:14.332Z,14.13
2018-03-02T11:39:42.597Z,11.77
2018-03-02T11:42:10.855Z,13.13
2018-03-02T11:44:39.141Z,12.67
2018-03-02T11:47:07.449Z,13.73
2018-03-02T11:49:35.698Z,12.17
2018-03-02T11:52:03.960Z,12.17
2018-03-02T11:54:32.217Z,11.93
2018-03-02T11:57:00.496Z,11.60
2018-03-02T11:59:28.839Z,12.90
2018-03-02T12:01:57.896Z,12.67
2018-03-02T12:04:26.148Z,11.80
2018-03-02T12:06:54.411Z,11.93
2018-03-02T12:09:22.730Z,12.10
2018-03-02T12:11:50.944Z,12.50
2018-03-02T12:14:19.966Z,12.10
2018-03-02T12:16:49.295Z,12.13
2018-03-02T12:19:17.563Z,12.53
2018-03-02T12:21:45.820Z,12.03
2018-03-02T12:24:14.096Z,13.93
2018-03-02T12:26:42.348Z,12.40
2018-03-02T12:29:11.413Z,12.90
2018-03-02T12:31:39.673Z,12.77
2018-03-02T12:34:07.935Z,13.40
2018-03-02T12:36:36.272Z,12.37
2018-03-02T12:39:04.482Z,12.40
2018-03-02T12:41:32.747Z,12.97
2018-03-02T12:44:01.026Z,12.57
2018-03-02T12:46:29.303Z,12.40
2018-03-02T12:48:57.585Z,12.95
2018-03-02T12:51:25.832Z,19.45
2018-03-02T12:53:54.104Z,13.10
2018-03-02T12:56:22.355Z,12.83
2018-03-02T12:58:50.615Z,13.40
2018-03-02T13:01:18.883Z,13.50
2018-03-02T13:03:47.144Z,13.40
2018-03-02T13:06:15.399Z,13.10
2018-03-02T13:08:43.674Z,13.93
2018-03-02T13:11:11.932Z,13.10
2018-03-02T13:13:40.953Z,12.90
2018-03-02T13:16:09.219Z,13.30
2018-03-02T13:18:43.329Z,13.20
2018-03-02T13:21:11.601Z,13.97
2018-03-02T13:23:39.860Z,13.07
2018-03-02T13:26:08.882Z,13.97
2018-03-02T13:28:50.699Z,14.87
2018-03-02T13:31:18.984Z,14.70
2018-03-02T13:34:05.131Z,14.23
2018-03-02T13:36:33.402Z,13.60
2018-03-02T13:39:01.664Z,12.57
2018-03-02T13:41:48.481Z,14.20
2018-03-02T13:44:17.508Z,14.00
2018-03-02T13:46:46.344Z,13.87
2018-03-02T13:52:26.988Z,14.57
2018-03-02T13:54:55.256Z,14.13
2018-03-02T13:57:41.211Z,13.60
2018-03-02T14:00:10.304Z,13.53
2018-03-02T14:02:57.111Z,13.63
2018-03-02T14:05:26.156Z,13.90
2018-03-02T14:07:54.408Z,12.90
2018-03-02T14:10:22.663Z,13.40
2018-03-02T14:12:51.705Z,14.37
2018-03-02T14:15:19.958Z,12.70
2018-03-02T14:17:48.219Z,13.93
2018-03-02T14:20:17.269Z,12.77
2018-03-02T14:22:45.523Z,13.57
2018-03-02T14:25:14.587Z,14.20
2018-03-02T14:27:42.860Z,14.53
2018-03-02T14:30:11.901Z,14.20
2018-03-02T14:32:40.176Z,12.43
2018-03-02T14:35:08.462Z,12.73
2018-03-02T14:37:36.751Z,14.00
2018-03-02T14:40:04.995Z,13.57
2018-03-02T14:42:33.268Z,14.87
2018-03-02T14:45:01.517Z,13.30
2018-03-02T14:47:29.779Z,13.37
2018-03-02T14:49:58.822Z,14.03
2018-03-02T14:52:27.860Z,13.57
2018-03-02T14:54:56.876Z,15.00
2018-03-02T14:57:25.153Z,14.20
2018-03-02T14:59:53.409Z,14.10
2018-03-02T15:02:22.432Z,14.10
2018-03-02T15:04:50.703Z,14.53
2018-03-02T15:07:18.954Z,13.20
2018-03-02T15:09:47.991Z,16.20
2018-03-02T15:12:16.277Z,14.37
2018-03-02T15:14:44.527Z,12.90
2018-03-02T15:17:12.814Z,16.20
2018-03-02T15:19:41.087Z,15.30
2018-03-02T15:22:09.339Z,15.77
2018-03-02T15:24:37.595Z,13.53
2018-03-02T15:27:06.643Z,13.40
2018-03-02T15:29:35.017Z,13.93
2018-03-02T15:32:03.303Z,15.50
2018-03-02T15:34:31.645Z,14.70
2018-03-02T15:36:59.898Z,15.07
2018-03-02T15:39:28.911Z,15.20
2018-03-02T15:41:57.203Z,13.20
2018-03-02T15:44:25.462Z,15.40
2018-03-02T15:46:53.785Z,13.97
2018-03-02T15:49:22.065Z,15.60
2018-03-02T15:51:50.316Z,15.67
2018-03-02T15:54:18.595Z,14.57
2018-03-02T15:56:47.755Z,16.00
2018-03-02T15:59:16.027Z,15.10
2018-03-02T16:01:44.635Z,15.17
2018-03-02T16:04:13.320Z,14.30
2018-03-02T16:06:41.707Z,15.50
2018-03-02T16:09:10.024Z,13.50
2018-03-02T16:11:38.360Z,14.83
2018-03-02T16:14:06.651Z,14.63
2018-03-02T16:16:34.970Z,15.70
2018-03-02T16:19:03.990Z,15.80
2018-03-02T16:21:32.260Z,14.50
2018-03-02T16:24:00.558Z,16.37
2018-03-02T16:26:28.969Z,15.50
2018-03-02T16:28:57.258Z,15.33
2018-03-02T16:31:25.616Z,14.77
2018-03-02T16:33:54.374Z,16.13
2018-03-02T16:36:22.850Z,15.17
2018-03-02T16:38:51.437Z,14.63
2018-03-02T16:41:19.755Z,14.90
2018-03-02T16:43:48.126Z,16.83
2018-03-02T16:46:16.501Z,15.10
2018-03-02T16:48:46.383Z,15.20
2018-03-02T16:51:14.782Z,15.17
2018-03-02T16:53:43.063Z,15.60
2018-03-02T16:56:11.377Z,15.97
2018-03-02T16:58:40.492Z,17.30
2018-03-02T17:01:09.575Z,15.80
2018-03-02T17:03:38.623Z,15.80
2018-03-02T17:06:07.340Z,15.50
2018-03-02T17:08:35.958Z,17.83
2018-03-02T17:11:04.300Z,16.20
2018-03-02T17:13:32.611Z,15.60
2018-03-02T17:16:01.620Z,17.50
2018-03-02T17:18:30.029Z,17.37
2018-03-02T17:20:58.493Z,18.07
2018-03-02T17:23:26.882Z,16.63
2018-03-02T17:25:55.317Z,17.07
2018-03-02T17:28:23.745Z,16.90
2018-03-02T17:30:53.160Z,16.50
2018-03-02T17:33:23.222Z,18.60
2018-03-02T17:35:52.760Z,16.70
2018-03-02T17:38:22.818Z,17.90
2018-03-02T17:40:52.516Z,16.03
2018-03-02T17:43:22.277Z,17.03
2018-03-02T17:45:52.421Z,18.20
2018-03-02T17:48:21.737Z,19.10
2018-03-02T17:50:51.070Z,17.70
2018-03-02T17:53:20.404Z,17.10
2018-03-02T17:55:49.713Z,16.93
2018-03-02T17:58:19.670Z,16.70
2018-03-02T18:00:48.983Z,18.60
2018-03-02T18:03:18.282Z,17.50
2018-03-02T18:05:47.718Z,16.93
2018-03-02T18:08:17.750Z,19.13
2018-03-02T18:10:47.042Z,18.13
2018-03-02T18:13:17.206Z,17.97
2018-03-02T18:15:46.709Z,18.67
2018-03-02T18:18:15.950Z,18.50
2018-03-02T18:20:45.170Z,19.13
2018-03-02T18:23:14.923Z,18.37
2018-03-02T18:25:44.177Z,17.97
2018-03-02T18:28:13.478Z,20.55
2018-03-02T18:30:42.887Z,18.30
2018-03-02T18:33:12.134Z,17.90
2018-03-02T18:35:41.420Z,17.80
2018-03-02T18:38:10.782Z,18.13
2018-03-02T18:40:40.075Z,18.63
2018-03-02T18:43:10.176Z,19.00
2018-03-02T18:45:40.257Z,18.90
2018-03-02T18:48:09.679Z,19.55
2018-03-02T18:50:39.017Z,20.13
2018-03-02T18:53:08.456Z,18.50
2018-03-02T18:55:37.870Z,18.60
2018-03-02T18:58:07.196Z,19.57
2018-03-02T19:00:36.485Z,17.73
2018-03-02T19:03:05.951Z,18.30
2018-03-02T19:05:35.331Z,18.10
2018-03-02T19:08:05.625Z,19.20
2018-03-02T19:10:34.871Z,19.07
2018-03-02T19:13:04.151Z,19.67
2018-03-02T19:15:35.278Z,19.87
2018-03-02T19:18:05.660Z,18.77
2018-03-02T19:20:35.079Z,20.43
2018-03-02T19:23:04.381Z,20.00
2018-03-02T19:25:33.812Z,19.73
2018-03-02T19:28:04.015Z,19.87
2018-03-02T19:30:33.464Z,20.00
2018-03-02T19:33:03.747Z,19.37
2018-03-02T19:35:33.184Z,20.60
2018-03-02T19:38:02.502Z,18.47
2018-03-02T19:40:31.947Z,18.57
2018-03-02T19:43:01.193Z,20.13
2018-03-02T19:45:30.598Z,20.53
2018-03-02T19:48:00.260Z,19.37
2018-03-02T19:50:30.617Z,19.03
2018-03-02T19:53:01.717Z,20.00
2018-03-02T19:55:31.607Z,20.80
2018-03-02T19:58:00.977Z,20.10
2018-03-02T20:00:30.758Z,20.03
2018-03-02T20:03:00.363Z,20.90
2018-03-02T20:05:29.744Z,19.80
2018-03-02T20:07:59.232Z,21.00
2018-03-02T20:10:28.697Z,20.83
2018-03-02T20:12:58.810Z,22.33
2018-03-02T20:15:29.003Z,20.83
2018-03-02T20:17:58.416Z,20.50
2018-03-02T20:20:28.614Z,21.37
2018-03-02T20:22:57.996Z,20.90
2018-03-02T20:25:27.371Z,21.33
2018-03-02T20:27:57.541Z,19.10
2018-03-02T20:30:26.864Z,21.13
2018-03-02T20:32:57.172Z,22.03
2018-03-02T20:35:26.637Z,21.30
2018-03-02T20:37:55.987Z,20.70
2018-03-02T20:40:25.364Z,20.17
2018-03-02T20:42:54.664Z,21.40
2018-03-02T20:45:23.942Z,21.10
2018-03-02T20:47:53.373Z,21.63
2018-03-02T20:50:22.689Z,22.57
2018-03-02T20:52:52.012Z,19.90
2018-03-02T20:55:22.228Z,19.50
2018-03-02T20:57:51.634Z,21.73
2018-03-02T21:00:21.994Z,19.33
2018-03-02T21:02:51.343Z,21.90
2018-03-02T21:05:20.683Z,20.87
2018-03-02T21:07:50.075Z,21.10
2018-03-02T21:10:19.382Z,20.67
2018-03-02T21:12:48.843Z,21.73
2018-03-02T21:15:18.173Z,21.40
2018-03-02T21:17:48.875Z,20.27
2018-03-02T21:20:18.206Z,21.37
2018-03-02T21:22:47.689Z,22.30
2018-03-02T21:25:16.979Z,18.30
2018-03-02T21:27:46.292Z,20.53
2018-03-02T21:30:15.672Z,21.27
2018-03-02T21:32:45.966Z,19.50
2018-03-02T21:35:15.363Z,18.93
2018-03-02T21:37:44.853Z,21.00
2018-03-02T21:40:14.471Z,22.87
2018-03-02T21:42:43.918Z,19.37
2018-03-02T21:45:13.341Z,20.00
2018-03-02T21:47:42.718Z,18.90
2018-03-02T21:50:12.882Z,21.97
2018-03-02T21:52:42.135Z,20.83
2018-03-02T21:55:12.405Z,19.10
2018-03-02T21:57:41.842Z,19.80
2018-03-02T22:00:11.205Z,19.57
2018-03-02T22:02:41.333Z,19.67
2018-03-02T22:05:10.817Z,19.57
2018-03-02T22:07:40.871Z,20.27
2018-03-02T22:10:10.247Z,20.50
2018-03-02T22:12:40.316Z,20.10
2018-03-02T22:15:09.653Z,20.37
2018-03-02T22:17:39.742Z,20.17
2018-03-02T22:20:09.848Z,22.37
2018-03-02T22:22:39.105Z,19.37
2018-03-02T22:25:09.188Z,19.67
2018-03-02T22:27:39.475Z,19.90
2018-03-02T22:30:08.866Z,20.27
2018-03-02T22:32:38.082Z,19.60
2018-03-02T22:35:07.376Z,19.73
2018-03-02T22:37:36.692Z,18.73
2018-03-02T22:40:05.965Z,18.93
2018-03-02T22:42:35.138Z,20.67
2018-03-02T22:45:05.189Z,19.23
2018-03-02T22:47:34.565Z,17.47
2018-03-02T22:50:02.952Z,21.17
2018-03-02T22:52:31.218Z,20.00
2018-03-02T22:54:59.500Z,19.50
2018-03-02T22:57:27.768Z,20.67
2018-03-02T22:59:56.151Z,20.50
2018-03-02T23:02:24.436Z,19.27
2018-03-02T23:04:52.699Z,20.70
2018-03-02T23:07:20.992Z,19.53
2018-03-02T23:09:49.263Z,20.17
2018-03-02T23:12:17.550Z,20.07
2018-03-02T23:14:45.816Z,19.03
2018-03-02T23:17:14.085Z,20.33
2018-03-02T23:19:42.376Z,25.13
2018-03-02T23:22:10.647Z,19.97
2018-03-02T23:24:38.908Z,19.80
2018-03-02T23:27:07.196Z,21.17
2018-03-02T23:29:35.457Z,18.87
2018-03-02T23:32:03.719Z,20.60
2018-03-02T23:34:32.005Z,20.53
2018-03-02T23:37:00.284Z,21.07
2018-03-02T23:39:28.637Z,19.33
2018-03-02T23:41:57.687Z,19.13
2018-03-02T23:44:25.954Z,19.17
2018-03-02T23:46:54.215Z,19.00
2018-03-02T23:49:22.491Z,19.30
2018-03-02T23:51:50.755Z,20.00
2018-03-02T23:54:19.022Z,20.20
2018-03-02T23:56:47.311Z,20.83
2018-03-02T23:59:15.569Z,20.02
